Current Conditions
Partly Cloudy
Conditions



Pressure
30.42 (inHG) - 1030.12 (mb)
Visibility

10.0 (mimiles) - 16.1 (km)
   Temperature
12  °F
-11°C
0  °F
Dewpoint
57  %
 Humidity
   Wind Speed
3  mph
3  kts
5  km/h
1.3  m/s
   Wind Direction
 210°
South South
West
   Airport Data
KORD
Location Chicago O'hare International 40 mi (64.36 km)
Metar :KORD 130051Z 21003KT 10SM FEW250 M11/M18 A3042 RMK AO2 SLP315 T11111178
Tue 12th November 19:51 pm
   Raw Metar Info
Raw METAR is the most common format in the world for the transmission of observational weather data. It is highly standardized through the International Civil Aviation Organization (ICAO), which allows it to be understood throughout most of the world.
   API Info
Data Provided by
https://www.checkwx.com/weather/KORD
   © Info
CSS/SVG/PHP scripts were developed by weather34.com for use in the weather34 template © 2015-2019

Guide Info provided by Metar-Wikipedia